Time;durP1;ratioP1;P1;durP2;ratioP2;P2;SDS_P1;SDS_P2;PMS_P1;PMS_P2;Temp;Humidity;BMP_temperature;BMP_pressure;BME280_temperature;BME280_humidity;BME280_pressure;Samples;Min_cycle;Max_cycle;Signal;HPM_P1;HPM_P2
2024/04/11 00:02:05;;;;;;;;;0.33;0.33;;;;;24.03;40.43;102882.25;5502848;25;46510;-75
2024/04/11 00:04:30;;;;;;;;;0.00;0.00;;;;;24.01;39.99;102884.22;5535670;25;43945;-75
2024/04/11 00:06:56;;;;;;;;;0.00;0.00;;;;;23.86;39.90;102854.59;5538764;25;43831;-75
2024/04/11 00:09:21;;;;;;;;;1.67;0.00;;;;;24.02;40.84;102875.22;5538734;25;43959;-76
2024/04/11 00:11:46;;;;;;;;;0.00;0.00;;;;;24.01;40.29;102878.03;5538641;25;45041;-76
2024/04/11 00:14:12;;;;;;;;;0.00;0.00;;;;;24.00;41.25;102871.03;5538224;25;43859;-76
2024/04/11 00:16:37;;;;;;;;;0.33;0.00;;;;;23.83;40.16;102846.91;5538707;25;43723;-75
2024/04/11 00:19:02;;;;;;;;;0.00;0.00;;;;;24.00;40.64;102879.88;5538587;25;43743;-76
2024/04/11 00:21:28;;;;;;;;;0.00;0.00;;;;;23.99;41.09;102894.16;5538558;25;44781;-76
2024/04/11 00:23:53;;;;;;;;;1.00;0.00;;;;;24.02;41.30;102898.34;5538632;25;43916;-76
2024/04/11 00:26:18;;;;;;;;;1.33;0.00;;;;;23.91;40.69;102881.56;5538603;25;43812;-76
2024/04/11 00:28:44;;;;;;;;;0.00;0.00;;;;;24.02;40.49;102906.31;5538197;25;43881;-75
2024/04/11 00:31:09;;;;;;;;;1.67;0.00;;;;;23.92;40.45;102901.00;5538371;25;45628;-75
2024/04/11 00:33:37;;;;;;;;;0.00;0.00;;;;;23.91;40.79;102891.38;5538549;25;43956;-76
2024/04/11 00:36:05;;;;;;;;;0.00;0.00;;;;;23.97;40.64;102896.09;5538840;25;43972;-76
2024/04/11 00:38:33;;;;;;;;;0.00;0.00;;;;;24.00;40.58;102908.25;5538596;25;43916;-76
2024/04/11 00:40:59;;;;;;;;;0.00;0.00;;;;;23.83;41.04;102878.78;5538040;25;44962;-76
2024/04/11 00:43:26;;;;;;;;;0.00;0.00;;;;;23.93;39.99;102900.03;5537577;25;44022;-76
2024/04/11 00:45:55;;;;;;;;;0.67;0.67;;;;;23.84;39.66;102896.41;5538295;25;44021;-77
2024/04/11 00:48:21;;;;;;;;;0.67;0.67;;;;;23.98;41.35;102915.56;5538239;25;43921;-75
2024/04/11 00:50:47;;;;;;;;;0.00;0.00;;;;;23.96;41.77;102913.06;5538110;25;44820;-75
2024/04/11 00:53:13;;;;;;;;;0.00;0.00;;;;;23.84;40.98;102891.94;5538298;25;43657;-75
2024/04/11 00:55:41;;;;;;;;;0.00;0.00;;;;;24.00;40.63;102914.44;5538187;25;44168;-76
2024/04/11 00:58:08;;;;;;;;;0.00;0.00;;;;;23.90;40.71;102895.84;5537652;25;43830;-75
2024/04/11 01:00:34;;;;;;;;;0.00;0.00;;;;;23.70;40.24;102856.03;5537930;25;45530;-75
2024/04/11 01:02:59;;;;;;;;;1.00;0.00;;;;;23.81;40.13;102868.28;5537993;25;44014;-76
2024/04/11 01:05:24;;;;;;;;;1.00;0.00;;;;;24.00;40.20;102887.00;5538019;25;44063;-76
2024/04/11 01:07:51;;;;;;;;;1.00;0.00;;;;;23.79;41.00;102867.59;5537971;25;43903;-75
2024/04/11 01:10:17;;;;;;;;;0.00;0.00;;;;;23.76;40.05;102873.19;5537800;25;45314;-73
2024/04/11 01:12:43;;;;;;;;;0.00;0.00;;;;;23.99;40.77;102918.09;5537640;25;43847;-76
2024/04/11 01:15:10;;;;;;;;;0.00;0.00;;;;;24.01;40.93;102920.59;5538038;25;43927;-76
2024/04/11 01:17:36;;;;;;;;;0.00;0.00;;;;;24.00;40.74;102917.09;5536960;25;43918;-76
2024/04/11 01:20:01;;;;;;;;;0.00;0.00;;;;;23.82;41.19;102887.72;5537790;25;44892;-76
2024/04/11 01:22:26;;;;;;;;;0.00;0.00;;;;;23.96;41.77;102913.88;5537787;25;43951;-76
2024/04/11 01:24:53;;;;;;;;;0.00;0.00;;;;;23.89;40.08;102901.31;5537953;25;44033;-75
2024/04/11 01:27:20;;;;;;;;;0.00;0.00;;;;;23.89;40.63;102888.03;5537244;25;44120;-75
2024/04/11 01:29:49;;;;;;;;;0.00;0.00;;;;;23.89;41.46;102880.03;5537850;25;45111;-76
2024/04/11 01:32:15;;;;;;;;;0.00;0.00;;;;;23.93;41.42;102889.41;5537812;25;43960;-76
2024/04/11 01:34:40;;;;;;;;;0.00;0.00;;;;;23.91;40.61;102888.72;5537826;25;43989;-76
2024/04/11 01:37:06;;;;;;;;;0.67;0.67;;;;;23.84;40.19;102883.94;5537742;25;43763;-76
2024/04/11 01:39:31;;;;;;;;;0.33;0.00;;;;;23.97;40.03;102906.72;5504441;25;44583;-75
2024/04/11 01:41:57;;;;;;;;;1.00;0.00;;;;;23.93;40.14;102900.88;5537158;25;43974;-76
2024/04/11 01:44:24;;;;;;;;;1.00;0.00;;;;;23.83;40.52;102887.59;5537193;25;44152;-75
2024/04/11 01:46:52;;;;;;;;;0.00;0.00;;;;;23.80;40.44;102890.56;5537542;25;43843;-76
2024/04/11 01:49:18;;;;;;;;;2.00;1.00;;;;;23.96;40.82;102926.34;5537406;25;44867;-76
2024/04/11 01:51:44;;;;;;;;;0.00;0.00;;;;;23.69;40.13;102877.41;5537640;25;43934;-76
2024/04/11 01:54:11;;;;;;;;;1.67;0.00;;;;;23.84;40.81;102910.53;5537555;25;43954;-76
2024/04/11 01:56:37;;;;;;;;;1.00;0.00;;;;;23.78;41.41;102895.16;5537112;25;43993;-75
2024/04/11 01:59:06;;;;;;;;;0.00;0.00;;;;;23.97;40.56;102922.69;5537368;25;45571;-75
2024/04/11 02:01:35;;;;;;;;;0.67;0.67;;;;;23.98;41.00;102915.56;5537429;25;43963;-76
2024/04/11 02:04:05;;;;;;;;;0.00;0.00;;;;;23.77;40.94;102872.22;5537426;25;43914;-75
2024/04/11 02:06:34;;;;;;;;;0.00;0.00;;;;;23.96;40.58;102886.47;5537628;25;43947;-76
2024/04/11 02:09:05;;;;;;;;;1.00;0.00;;;;;23.82;40.57;102866.47;5536890;25;44836;-75
2024/04/11 02:11:37;;;;;;;;;0.00;0.00;;;;;23.85;40.18;102888.31;5537253;25;43911;-76
2024/04/11 02:14:02;;;;;;;;;0.00;0.00;;;;;23.95;40.27;102900.72;5537510;25;43881;-75
2024/04/11 02:16:29;;;;;;;;;1.00;0.00;;;;;23.93;39.78;102894.72;5537339;25;43930;-75
2024/04/11 02:18:55;;;;;;;;;0.00;0.00;;;;;23.68;40.46;102851.81;5537149;25;44971;-76
2024/04/11 02:21:20;;;;;;;;;0.00;0.00;;;;;23.82;41.22;102875.28;5537271;25;44033;-76
2024/04/11 02:23:46;;;;;;;;;0.00;0.00;;;;;23.90;40.09;102881.69;5504021;25;44038;-75
2024/04/11 02:26:13;;;;;;;;;0.00;0.00;;;;;23.92;41.53;102880.56;5537236;25;43913;-75
2024/04/11 02:28:38;;;;;;;;;0.00;0.00;;;;;23.97;40.66;102896.09;5535096;25;44011;-75
2024/04/11 02:31:03;;;;;;;;;2.00;0.00;;;;;23.84;40.32;102872.47;5537181;25;44026;-75
2024/04/11 02:33:31;;;;;;;;;0.00;0.00;;;;;23.95;41.47;102898.91;5504255;25;44042;-76
2024/04/11 02:35:57;;;;;;;;;0.00;0.00;;;;;23.52;40.17;102829.34;5537193;25;44003;-75
2024/04/11 02:38:25;;;;;;;;;0.00;0.00;;;;;23.96;40.73;102905.06;5536335;25;44693;-76
2024/04/11 02:40:51;;;;;;;;;0.00;0.00;;;;;23.96;40.41;102905.06;5536971;25;43787;-76
2024/04/11 02:43:18;;;;;;;;;0.00;0.00;;;;;23.97;41.33;102898.75;5537214;25;43840;-76
2024/04/11 02:45:43;;;;;;;;;0.00;0.00;;;;;23.84;40.44;102868.00;5536584;25;43986;-75
2024/04/11 02:48:09;;;;;;;;;0.00;0.00;;;;;23.94;41.20;102870.63;5536569;25;46007;-75
2024/04/11 02:50:35;;;;;;;;;1.00;0.00;;;;;23.83;40.30;102863.69;5537013;25;43827;-76
2024/04/11 02:53:00;;;;;;;;;0.00;0.00;;;;;23.96;41.17;102875.81;5536715;25;43890;-75
2024/04/11 02:55:27;;;;;;;;;0.67;0.67;;;;;23.59;40.29;102813.66;5537020;25;43804;-76
2024/04/11 02:57:52;;;;;;;;;0.67;0.00;;;;;23.95;40.22;102868.81;5536870;25;44105;-76
2024/04/11 03:00:19;;;;;;;;;0.00;0.00;;;;;23.77;41.20;102845.66;5536677;25;43877;-76
2024/04/11 03:02:44;;;;;;;;;1.00;1.00;;;;;23.94;41.36;102869.81;5537032;25;44026;-75
2024/04/11 03:05:12;;;;;;;;;2.00;0.00;;;;;23.93;40.76;102870.78;5536733;25;43876;-76
2024/04/11 03:07:38;;;;;;;;;0.00;0.00;;;;;23.92;40.71;102883.25;5535938;25;43858;-76
2024/04/11 03:10:03;;;;;;;;;1.33;1.00;;;;;23.87;40.60;102869.53;5536905;25;43949;-76
2024/04/11 03:12:28;;;;;;;;;1.33;0.00;;;;;23.91;40.82;102884.25;5536591;25;44078;-76
2024/04/11 03:14:54;;;;;;;;;1.00;0.00;;;;;23.93;40.38;102886.75;5536696;25;43838;-76
2024/04/11 03:17:19;;;;;;;;;1.00;0.00;;;;;23.82;40.96;102872.63;5536363;25;44776;-76
2024/04/11 03:19:45;;;;;;;;;2.33;0.00;;;;;23.77;41.33;102880.19;5536362;25;43847;-76
2024/04/11 03:22:10;;;;;;;;;0.00;0.00;;;;;23.93;40.04;102889.41;5536228;25;43975;-76
2024/04/11 03:24:36;;;;;;;;;0.00;0.00;;;;;23.92;41.31;102896.53;5536528;25;43843;-76
2024/04/11 03:27:02;;;;;;;;;0.00;0.00;;;;;23.86;41.42;102889.16;5536155;25;45106;-76
2024/04/11 03:29:28;;;;;;;;;0.00;0.00;;;;;23.90;40.86;102901.16;5536473;25;44026;-75
2024/04/11 03:31:54;;;;;;;;;0.00;0.00;;;;;23.92;40.13;102893.88;5536514;25;43962;-76
2024/04/11 03:34:20;;;;;;;;;0.00;0.00;;;;;23.88;41.62;102883.69;5536451;25;44013;-76
2024/04/11 03:36:46;;;;;;;;;2.00;0.00;;;;;23.90;40.97;102882.56;5535749;25;44139;-75
2024/04/11 03:39:14;;;;;;;;;0.00;0.00;;;;;23.92;40.55;102885.91;5535631;25;43840;-76
2024/04/11 03:41:40;;;;;;;;;0.00;0.00;;;;;23.79;41.53;102859.63;5536105;25;43938;-76
2024/04/11 03:44:08;;;;;;;;;0.00;0.00;;;;;23.61;40.69;102823.16;5535714;25;44057;-76
2024/04/11 03:46:36;;;;;;;;;0.00;0.00;;;;;23.83;40.19;102868.16;5502962;25;45131;-76
2024/04/11 03:49:02;;;;;;;;;1.00;1.00;;;;;23.89;40.02;102867.56;5535900;25;43827;-75
2024/04/11 03:51:29;;;;;;;;;0.00;0.00;;;;;23.92;41.00;102874.41;5535642;25;44032;-76
2024/04/11 03:53:58;;;;;;;;;0.33;0.33;;;;;23.92;40.79;102883.25;5535904;25;43973;-76
2024/04/11 03:56:24;;;;;;;;;1.00;0.00;;;;;23.91;40.55;102873.59;5535468;25;45808;-75
2024/04/11 03:58:51;;;;;;;;;0.00;0.00;;;;;23.89;40.39;102872.88;5535661;25;43874;-75
2024/04/11 04:01:18;;;;;;;;;0.67;0.00;;;;;23.90;40.60;102877.22;5535952;25;44026;-75
2024/04/11 04:03:45;;;;;;;;;0.00;0.00;;;;;23.93;39.61;102884.09;5535483;25;43849;-73
2024/04/11 04:06:12;;;;;;;;;0.00;0.00;;;;;23.93;40.25;102881.44;5535002;25;45062;-75
2024/04/11 04:08:38;;;;;;;;;0.00;0.00;;;;;23.93;41.08;102878.75;5535253;25;43982;-76
2024/04/11 04:11:05;;;;;;;;;0.00;0.00;;;;;23.83;41.18;102873.47;5535702;25;43982;-76
2024/04/11 04:13:31;;;;;;;;;0.00;0.00;;;;;23.93;41.63;102886.75;5535615;25;43883;-76
2024/04/11 04:15:57;;;;;;;;;0.33;0.00;;;;;23.94;41.08;102872.47;5535132;25;44027;-75
2024/04/11 04:18:23;;;;;;;;;0.00;0.00;;;;;23.74;41.15;102838.78;5535062;25;43859;-75
2024/04/11 04:20:56;;;;;;;;;0.00;0.00;;;;;23.93;40.66;102879.63;5535001;25;44104;-75
2024/04/11 04:23:22;;;;;;;;;0.00;0.00;;;;;23.93;41.45;102868.13;5535402;25;43822;-75
2024/04/11 04:25:59;;;;;;;;;0.00;0.00;;;;;23.93;40.76;102870.78;5535088;25;45290;-75
2024/04/11 04:28:32;;;;;;;;;0.33;0.33;;;;;23.89;40.44;102861.44;5535066;25;43986;-76
2024/04/11 04:31:23;;;;;;;;;0.00;0.00;;;;;23.92;40.58;102864.63;5535089;25;43951;-75
2024/04/11 04:33:57;;;;;;;;;0.33;0.00;;;;;23.92;41.41;102858.47;5534626;25;43896;-76
2024/04/11 04:36:28;;;;;;;;;0.00;0.00;;;;;23.89;41.59;102848.16;5534703;25;46001;-75
2024/04/11 04:38:56;;;;;;;;;0.00;0.00;;;;;23.87;41.09;102848.28;5534627;25;43795;-75
2024/04/11 04:41:26;;;;;;;;;0.33;0.00;;;;;23.84;41.08;102833.44;5534997;25;43767;-75
2024/04/11 04:43:57;;;;;;;;;0.00;0.00;;;;;23.92;41.44;102846.03;5534226;25;44009;-76
2024/04/11 04:46:24;;;;;;;;;0.00;0.00;;;;;23.88;40.28;102847.31;5534442;25;44019;-77
2024/04/11 04:48:52;;;;;;;;;1.67;1.00;;;;;23.91;40.10;102854.16;5534376;25;43842;-76
2024/04/11 04:51:18;;;;;;;;;0.00;0.00;;;;;23.86;40.73;102867.88;5534762;25;43989;-76
2024/04/11 04:53:44;;;;;;;;;0.00;0.00;;;;;23.77;41.75;102855.44;5538350;25;43636;-76
2024/04/11 04:56:10;;;;;;;;;0.00;0.00;;;;;23.90;41.75;102887.88;5538055;25;45429;-76
2024/04/11 04:58:36;;;;;;;;;1.00;0.00;;;;;23.82;41.47;102864.66;5537973;25;43841;-76
2024/04/11 05:01:03;;;;;;;;;0.67;0.00;;;;;23.75;41.72;102852.94;5538214;25;44133;-76
2024/04/11 05:03:31;;;;;;;;;0.00;0.00;;;;;23.85;40.15;102876.81;5537696;25;43990;-76
2024/04/11 05:05:58;;;;;;;;;0.00;0.00;;;;;23.89;40.27;102888.84;5537964;25;44949;-76
2024/04/11 05:08:24;;;;;;;;;1.00;1.00;;;;;23.81;41.87;102875.44;5537907;25;44008;-76
2024/04/11 05:10:53;;;;;;;;;0.00;0.00;;;;;23.76;41.26;102873.19;5538056;25;43987;-76
2024/04/11 05:13:26;;;;;;;;;0.00;0.00;;;;;23.83;41.17;102889.44;5538184;25;43982;-76
2024/04/11 05:15:58;;;;;;;;;0.00;0.00;;;;;23.78;40.74;102878.38;5537673;25;45756;-76
2024/04/11 05:18:23;;;;;;;;;0.33;0.33;;;;;23.79;40.39;102886.19;5537380;25;43970;-76
2024/04/11 05:20:51;;;;;;;;;0.00;0.00;;;;;23.89;41.51;102910.09;5537992;25;44411;-76
2024/04/11 05:23:17;;;;;;;;;0.00;0.00;;;;;23.65;40.12;102884.00;5537934;25;43871;-76
2024/04/11 05:25:43;;;;;;;;;0.00;0.00;;;;;23.90;40.00;102921.56;5537562;25;44068;-76
2024/04/11 05:28:09;;;;;;;;;1.00;0.00;;;;;23.86;41.43;102918.38;5537801;25;43969;-77
2024/04/11 05:30:40;;;;;;;;;0.00;0.00;;;;;23.89;41.66;102923.41;5537832;25;43859;-76
2024/04/11 05:33:08;;;;;;;;;0.67;0.67;;;;;23.71;41.41;102896.69;5537177;25;43968;-75
2024/04/11 05:35:34;;;;;;;;;0.00;0.00;;;;;23.88;40.38;102932.38;5537371;25;44961;-76
2024/04/11 05:37:59;;;;;;;;;0.00;0.00;;;;;23.85;41.45;102924.66;5537580;25;43807;-74
2024/04/11 05:40:25;;;;;;;;;0.00;0.00;;;;;23.70;40.90;102901.19;5537638;25;43896;-76
2024/04/11 05:42:50;;;;;;;;;0.00;0.00;;;;;23.63;41.03;102882.31;5533030;25;43946;-75
2024/04/11 05:45:18;;;;;;;;;0.00;0.00;;;;;23.61;40.71;102880.78;5535497;25;44772;-76
2024/04/11 05:47:44;;;;;;;;;0.00;0.00;;;;;23.72;41.09;102898.38;5535291;25;44037;-83
2024/04/11 05:50:10;;;;;;;;;0.33;0.33;;;;;23.88;41.61;102921.75;5537063;25;43903;-83
2024/04/11 05:52:36;;;;;;;;;2.00;0.00;;;;;23.85;41.27;102911.38;5537296;25;44031;-84
2024/04/11 05:55:02;;;;;;;;;0.67;0.67;;;;;23.76;41.08;102902.44;5531280;25;44267;-81
2024/04/11 05:57:28;;;;;;;;;0.00;0.00;;;;;23.90;41.66;102914.44;5536748;25;43925;-88
2024/04/11 05:59:55;;;;;;;;;0.00;0.00;;;;;22.85;41.46;102752.03;5537962;25;43872;-89
2024/04/11 06:02:21;;;;;;;;;0.00;0.00;;;;;23.58;42.40;102862.44;5538126;25;44116;-88
2024/04/11 06:04:46;;;;;;;;;0.00;0.00;;;;;23.72;41.77;102885.09;5537419;25;44148;-84
2024/04/11 06:07:11;;;;;;;;;0.00;0.00;;;;;23.87;41.90;102908.56;5537456;25;43990;-87
2024/04/11 06:09:39;;;;;;;;;1.00;0.00;;;;;23.87;42.23;102928.03;5537592;25;43958;-87
2024/04/11 06:12:05;;;;;;;;;0.00;0.00;;;;;23.72;41.19;102903.69;5537672;25;43820;-88
2024/04/11 06:14:30;;;;;;;;;2.00;0.00;;;;;23.93;42.36;102931.94;5537411;25;44785;-79
2024/04/11 06:16:56;;;;;;;;;0.33;0.33;;;;;23.93;41.59;102932.78;5536871;25;43866;-81
2024/04/11 06:19:21;;;;;;;;;0.00;0.00;;;;;23.94;41.49;102942.41;5537509;25;43924;-84
2024/04/11 06:21:53;;;;;;;;;0.00;0.00;;;;;23.77;42.49;102928.03;5537884;25;43732;-81
2024/04/11 06:24:21;;;;;;;;;0.00;0.00;;;;;23.89;40.72;102963.28;5536921;25;44098;-82
2024/04/11 06:26:48;;;;;;;;;4.00;1.00;;;;;23.61;40.54;102933.91;5537270;25;43877;-83
2024/04/11 06:29:19;;;;;;;;;0.00;0.00;;;;;23.68;41.46;102939.53;5537494;25;43990;-84
2024/04/11 18:13:33;;;;;;;;;2.67;2.67;;;;;24.13;44.06;103024.97;6186602;22;43444;-79
2024/04/11 18:16:08;;;;;;;;;5.00;3.33;;;;;24.18;43.36;103031.53;5179932;27;44895;-79
2024/04/11 18:18:39;;;;;;;;;3.67;3.33;;;;;24.15;43.76;103030.97;5184639;27;43994;-79
2024/04/11 18:21:11;;;;;;;;;2.00;2.00;;;;;24.20;43.44;103044.69;5184373;27;43890;-78
2024/04/11 18:23:37;;;;;;;;;4.33;2.67;;;;;24.18;44.41;103030.69;5184817;27;43979;-78
2024/04/11 18:26:02;;;;;;;;;4.00;4.00;;;;;24.21;44.35;103040.22;5184601;27;44042;-79
2024/04/11 18:28:30;;;;;;;;;5.33;5.33;;;;;24.22;43.95;103047.22;5185018;27;44007;-79
2024/04/11 18:31:04;;;;;;;;;7.00;5.33;;;;;24.21;43.23;103043.72;5184763;27;44051;-79
2024/04/11 18:33:30;;;;;;;;;4.67;3.00;;;;;23.94;43.53;103000.91;5184756;27;43840;-80
2024/04/11 18:35:55;;;;;;;;;4.67;3.67;;;;;24.16;43.45;103038.84;5183521;27;45350;-80
2024/04/11 18:38:25;;;;;;;;;3.67;3.67;;;;;24.24;44.69;103042.59;5184813;27;43875;-77
2024/04/11 18:40:54;;;;;;;;;4.00;4.00;;;;;24.23;43.67;103041.75;5184797;27;43927;-79
2024/04/11 18:43:29;;;;;;;;;7.00;4.33;;;;;24.23;43.55;103051.53;5181992;27;44042;-78
2024/04/11 18:46:17;;;;;;;;;5.67;5.00;;;;;24.19;44.75;103040.38;5207774;27;44807;-79
2024/04/11 18:48:42;;;;;;;;;6.33;5.00;;;;;24.18;43.16;103036.03;5209584;27;44252;-77
2024/04/11 18:51:11;;;;;;;;;5.00;3.00;;;;;24.26;43.99;103049.47;5188573;27;44046;-77
2024/04/11 18:53:37;;;;;;;;;3.33;3.33;;;;;24.17;43.85;103035.19;5191755;27;44422;-79
2024/04/11 18:56:06;;;;;;;;;4.67;4.00;;;;;24.13;43.06;103031.13;5191627;27;44868;-81
2024/04/11 18:58:36;;;;;;;;;4.00;3.67;;;;;24.25;43.24;103050.44;5170048;27;43888;-81
2024/04/11 19:01:04;;;;;;;;;4.67;4.67;;;;;24.16;43.05;103027.34;5194674;27;44032;-79
2024/04/11 19:03:29;;;;;;;;;5.00;4.00;;;;;24.25;42.81;103054.94;5180124;27;43880;-76
2024/04/11 19:06:04;;;;;;;;;5.33;4.67;;;;;24.24;43.54;103051.44;5188825;27;44767;-79
2024/04/11 19:08:33;;;;;;;;;7.00;5.00;;;;;24.12;43.29;103028.63;5186105;27;44088;-76
2024/04/11 19:11:12;;;;;;;;;4.33;4.33;;;;;24.17;42.99;103040.50;5195437;27;44122;-83
2024/04/11 19:13:41;;;;;;;;;4.00;4.00;;;;;24.12;44.10;103016.19;5201758;27;43867;-80
2024/04/11 19:16:07;;;;;;;;;5.33;5.00;;;;;24.32;42.84;103047.25;5202627;27;44938;-76
2024/04/11 19:18:41;;;;;;;;;6.00;4.33;;;;;24.26;42.63;103037.97;5201222;27;44006;-86
2024/04/11 19:21:15;;;;;;;;;4.00;2.00;;;;;24.34;43.16;103053.25;5217453;27;43926;-87
2024/04/11 19:23:42;;;;;;;;;3.67;3.67;;;;;24.14;44.17;103019.53;5214205;27;44016;-92
2024/04/11 19:26:17;;;;;;;;;10.33;5.00;;;;;24.34;42.82;103046.13;5218110;27;46161;-86
2024/04/11 19:28:46;;;;;;;;;5.67;5.67;;;;;24.27;43.63;103034.38;5193353;27;44074;-90
2024/04/11 19:31:20;;;;;;;;;11.67;5.67;;;;;24.41;43.00;103059.69;5201658;27;43894;-75
2024/04/11 19:33:50;;;;;;;;;6.33;4.00;;;;;24.25;44.13;103039.78;5183333;27;43873;-75
2024/04/11 19:36:21;;;;;;;;;5.67;4.33;;;;;24.30;42.98;103042.06;5184334;27;43964;-75
2024/04/11 19:38:49;;;;;;;;;4.00;3.67;;;;;24.39;43.41;103061.66;5183975;27;44037;-78
2024/04/11 19:41:16;;;;;;;;;4.67;4.67;;;;;24.32;43.88;103061.38;5183740;27;44087;-77
2024/04/11 19:43:44;;;;;;;;;2.33;2.33;;;;;24.46;44.00;103084.03;5183413;27;44028;-80
2024/04/11 19:46:12;;;;;;;;;10.00;6.00;;;;;24.17;43.34;103034.34;5181772;27;47176;-86
2024/04/11 19:48:39;;;;;;;;;3.67;3.67;;;;;24.44;43.89;103078.03;5182608;27;44021;-84
2024/04/11 19:51:17;;;;;;;;;4.67;4.00;;;;;24.50;43.41;103085.44;5205010;27;43974;-83
2024/04/11 19:53:44;;;;;;;;;4.00;4.00;;;;;24.46;44.16;103084.03;5173179;27;44056;-80
2024/04/11 19:56:20;;;;;;;;;6.67;4.00;;;;;24.29;43.89;103053.69;5181094;27;44910;-83
2024/04/11 19:59:00;;;;;;;;;4.67;4.00;;;;;24.42;44.22;103080.00;5173676;27;44212;-84
2024/04/11 20:01:48;;;;;;;;;4.67;4.00;;;;;24.60;43.94;103097.88;5184577;27;43847;-85
2024/04/11 20:04:29;;;;;;;;;6.67;5.00;;;;;24.36;43.93;103054.78;5166233;27;44037;-86
2024/04/11 20:07:01;;;;;;;;;2.67;2.67;;;;;24.63;42.96;103085.16;5157127;27;45253;-86
2024/04/11 20:09:36;;;;;;;;;4.33;3.67;;;;;24.36;43.93;103048.63;5165115;27;43991;-85
2024/04/11 20:12:13;;;;;;;;;5.00;3.67;;;;;24.68;43.81;103100.69;5154966;27;44015;-84
2024/04/11 20:14:43;;;;;;;;;2.33;2.33;;;;;24.18;43.52;103014.75;5166942;27;44084;-79
2024/04/11 20:17:28;;;;;;;;;4.33;4.00;;;;;24.69;43.87;103091.72;5182394;27;44213;-79
2024/04/11 20:20:01;;;;;;;;;4.33;4.33;;;;;24.70;43.94;103101.38;5150257;27;44093;-79
2024/04/11 20:22:38;;;;;;;;;4.33;4.33;;;;;24.61;43.12;103089.78;5164101;27;44066;-81
2024/04/11 20:25:08;;;;;;;;;5.67;5.67;;;;;24.72;43.86;103110.03;5199600;27;43954;-80
2024/04/11 20:27:35;;;;;;;;;4.67;4.00;;;;;24.73;43.41;103109.06;5214811;27;45017;-81
2024/04/11 20:30:14;;;;;;;;;4.33;4.33;;;;;24.73;44.01;103101.09;5200189;27;43955;-80
2024/04/11 20:32:48;;;;;;;;;5.67;3.00;;;;;24.36;44.32;103046.81;5196358;27;43948;-83
2024/04/11 20:35:41;;;;;;;;;3.67;3.67;;;;;24.74;44.42;103105.44;5196813;27;43935;-79
2024/04/11 20:38:15;;;;;;;;;4.00;3.67;;;;;24.73;43.26;103103.75;5239030;27;44779;-82
2024/04/11 20:40:44;;;;;;;;;4.33;4.33;;;;;24.74;44.98;103109.91;5193423;27;43971;-82
2024/04/11 20:43:18;;;;;;;;;4.33;3.00;;;;;24.74;43.79;103108.09;5204580;27;43908;-82
2024/04/11 20:45:47;;;;;;;;;4.67;3.67;;;;;24.75;44.19;103114.25;5200160;27;44046;-81
2024/04/11 21:34:37;;;;;;;;;3.00;3.00;;;;;24.78;44.70;103129.09;5188807;27;43912;-79
2024/04/11 21:37:02;;;;;;;;;4.00;4.00;;;;;24.63;44.38;103101.13;5211219;27;43756;-77
2024/04/11 21:39:34;;;;;;;;;3.33;3.33;;;;;24.74;44.72;103112.59;5184768;27;44070;-78
2024/04/11 21:42:09;;;;;;;;;3.33;3.33;;;;;24.73;44.36;103118.88;5185398;27;44999;-77
2024/04/11 21:44:36;;;;;;;;;6.00;4.33;;;;;24.73;44.16;103118.88;5183408;27;44054;-74
2024/04/11 21:47:04;;;;;;;;;4.33;2.33;;;;;24.76;43.94;103117.75;5185295;27;43879;-76
2024/04/11 21:49:29;;;;;;;;;3.67;2.33;;;;;24.75;43.32;103114.25;5185482;27;43849;-79
2024/04/11 21:52:03;;;;;;;;;2.67;2.67;;;;;24.66;43.31;103104.47;5185186;27;43988;-79
2024/04/11 21:54:29;;;;;;;;;2.00;2.00;;;;;24.71;43.58;103121.69;5184791;27;43923;-79
2024/04/11 21:56:57;;;;;;;;;4.00;3.00;;;;;24.69;43.30;103126.31;5185503;27;43889;-79
2024/04/11 21:59:22;;;;;;;;;2.67;2.00;;;;;24.62;43.69;103114.53;5185161;27;44130;-78
2024/04/11 22:01:53;;;;;;;;;2.00;2.00;;;;;24.52;43.79;103095.94;5185239;27;45267;-78
2024/04/11 22:04:31;;;;;;;;;3.33;3.33;;;;;24.64;43.58;103117.94;5185294;27;43750;-79
2024/04/11 22:07:03;;;;;;;;;3.33;3.33;;;;;24.52;43.25;103107.44;5185480;27;43950;-79
2024/04/11 22:09:43;;;;;;;;;2.00;2.00;;;;;24.61;44.41;103118.22;5184951;27;43947;-79
2024/04/11 22:12:12;;;;;;;;;2.00;2.00;;;;;24.59;44.17;103115.66;5185007;27;45622;-78
2024/04/11 22:14:45;;;;;;;;;2.00;2.00;;;;;24.51;43.74;103111.06;5184920;27;43939;-78
2024/04/11 22:17:21;;;;;;;;;4.00;3.00;;;;;24.57;43.73;103116.78;5185264;27;44431;-78
2024/04/11 22:19:47;;;;;;;;;3.00;3.00;;;;;24.49;44.54;103102.38;5185568;27;43960;-79
2024/04/11 22:22:13;;;;;;;;;3.67;3.67;;;;;24.54;44.24;103115.25;5184543;27;45025;-78
2024/04/11 22:24:38;;;;;;;;;2.00;2.00;;;;;24.53;43.93;103126.91;5185062;27;44018;-78
2024/04/11 22:27:08;;;;;;;;;3.33;3.33;;;;;24.51;44.07;103131.53;5184926;27;48200;-79
2024/04/11 22:29:37;;;;;;;;;3.67;2.67;;;;;24.42;43.35;103106.59;5185088;27;43875;-79
2024/04/11 22:32:10;;;;;;;;;6.67;3.33;;;;;24.50;44.68;103119.19;5184757;27;45018;-78
2024/04/11 22:34:39;;;;;;;;;3.00;3.00;;;;;24.26;44.08;103077.88;5184753;27;43928;-78
2024/04/11 22:37:09;;;;;;;;;3.00;2.00;;;;;24.18;44.74;103066.13;5184675;27;43859;-79
2024/04/11 22:39:40;;;;;;;;;4.33;3.00;;;;;24.48;44.44;103129.16;5185064;27;43813;-78
2024/04/11 22:42:08;;;;;;;;;2.00;2.00;;;;;24.48;44.70;103123.81;5184885;27;45239;-78
2024/04/11 22:44:47;;;;;;;;;2.00;2.00;;;;;24.44;44.02;103111.78;5184844;27;44018;-79
2024/04/11 22:47:15;;;;;;;;;2.67;2.67;;;;;24.39;43.83;103115.69;5185068;27;43841;-78
2024/04/11 22:49:44;;;;;;;;;3.00;3.00;;;;;24.45;43.01;103129.44;5185030;27;43801;-78
2024/04/11 22:52:10;;;;;;;;;3.00;3.00;;;;;24.37;43.02;103124.81;5184341;27;45973;-80
2024/04/11 22:54:40;;;;;;;;;2.00;2.00;;;;;24.44;43.79;103133.06;5184815;27;43856;-78
2024/04/11 22:57:07;;;;;;;;;3.33;2.00;;;;;24.42;43.78;103127.88;5184941;27;43906;-78
2024/04/11 22:59:35;;;;;;;;;3.00;3.00;;;;;24.39;43.97;103115.69;5184686;27;43925;-78
2024/04/11 23:02:09;;;;;;;;;2.67;2.67;;;;;24.43;43.87;103123.41;5184549;27;45648;-79
2024/04/11 23:04:47;;;;;;;;;3.67;3.00;;;;;24.42;43.52;103119.91;5184484;27;43959;-78
2024/04/11 23:10:02;;;;;;;;;3.00;2.00;;;;;24.42;43.54;103121.72;5184709;27;43860;-79
2024/04/11 23:12:36;;;;;;;;;4.00;2.33;;;;;24.37;43.79;103111.50;5184337;27;45654;-78
2024/04/11 23:15:12;;;;;;;;;4.67;4.00;;;;;24.32;44.06;103106.63;5184511;27;43799;-79
2024/04/11 23:20:28;;;;;;;;;3.33;3.33;;;;;24.40;43.38;103109.41;5184160;27;43960;-79
2024/04/11 23:22:58;;;;;;;;;3.33;2.67;;;;;24.25;43.96;103076.22;5184282;27;43965;-78
2024/04/11 23:25:25;;;;;;;;;6.00;4.00;;;;;24.25;43.56;103082.34;5184350;27;43836;-78
2024/04/11 23:28:05;;;;;;;;;4.00;2.00;;;;;24.24;44.20;103079.84;5184406;27;44088;-79
2024/04/11 23:30:37;;;;;;;;;2.00;2.00;;;;;24.36;43.70;103107.16;5184647;27;43723;-79
2024/04/11 23:33:07;;;;;;;;;3.00;3.00;;;;;24.38;43.80;103115.84;5184185;27;44077;-78
2024/04/11 23:35:32;;;;;;;;;3.00;3.00;;;;;24.23;43.38;103089.63;5183969;27;43897;-78
2024/04/11 23:38:05;;;;;;;;;3.00;3.00;;;;;24.38;43.37;103098.03;5184428;27;43886;-78
2024/04/11 23:40:39;;;;;;;;;4.00;3.67;;;;;24.33;44.27;103091.50;5184302;27;43855;-79
2024/04/11 23:43:10;;;;;;;;;1.00;1.00;;;;;24.28;44.04;103083.91;5183928;27;45067;-78
2024/04/11 23:45:40;;;;;;;;;2.00;2.00;;;;;24.25;43.80;103077.03;5183981;27;44044;-79
2024/04/11 23:48:18;;;;;;;;;2.33;2.33;;;;;24.09;44.72;103050.19;5184263;27;43797;-78
2024/04/11 23:50:53;;;;;;;;;3.00;3.00;;;;;24.34;43.50;103091.34;5183839;27;44120;-78
2024/04/11 23:53:27;;;;;;;;;2.33;2.33;;;;;24.35;44.48;103093.03;5183755;27;43918;-78
2024/04/11 23:55:56;;;;;;;;;2.00;1.33;;;;;24.31;43.17;103086.28;5183892;27;43884;-78
2024/04/11 23:58:32;;;;;;;;;2.67;2.67;;;;;24.27;43.80;103064.47;5183051;27;43956;-78
